createdAt,value
2022-12-14T00:00:03.471Z,176.2
2022-12-14T00:01:11.064Z,187.7
2022-12-14T00:02:20.741Z,199
2022-12-14T00:03:27.900Z,225.4
2022-12-14T00:04:34.921Z,224.6
2022-12-14T00:05:41.974Z,222.6
2022-12-14T00:06:49.142Z,217
2022-12-14T00:07:56.292Z,239.3
2022-12-14T00:09:03.422Z,250.2
2022-12-14T00:10:11.138Z,244.5
2022-12-14T00:11:18.218Z,244.1
2022-12-14T00:12:27.938Z,247.8
2022-12-14T00:13:35.100Z,255
2022-12-14T00:14:42.179Z,245.6
2022-12-14T00:15:49.399Z,265.1
2022-12-14T00:16:56.426Z,246.7
2022-12-14T00:18:03.502Z,243
2022-12-14T00:19:10.724Z,247.3
2022-12-14T00:20:17.799Z,245.5
2022-12-14T00:21:25.033Z,237.1
2022-12-14T00:22:32.163Z,233.5
2022-12-14T00:23:39.455Z,223.1
2022-12-14T00:24:46.330Z,200.9
2022-12-14T00:25:53.495Z,198.1
2022-12-14T00:27:00.652Z,194.4
2022-12-14T00:28:07.711Z,176.2
2022-12-14T00:29:14.935Z,176.4
2022-12-14T00:30:21.965Z,177.9
2022-12-14T00:31:29.322Z,182.5
2022-12-14T00:32:36.336Z,192.1
2022-12-14T00:33:43.348Z,187.8
2022-12-14T00:34:50.497Z,188.1
2022-12-14T00:35:57.766Z,191.6
2022-12-14T00:37:04.819Z,192.4
2022-12-14T00:38:12.002Z,188.4
2022-12-14T00:39:19.114Z,189.4
2022-12-14T00:40:26.267Z,197.3
2022-12-14T00:41:33.542Z,187.9
2022-12-14T00:42:40.454Z,195.5
2022-12-14T00:43:49.170Z,197.9
2022-12-14T00:44:54.810Z,196.6
2022-12-14T00:46:01.944Z,191.6
2022-12-14T00:47:08.994Z,207.8
2022-12-14T00:48:16.227Z,195
2022-12-14T00:49:23.387Z,188.8
2022-12-14T00:50:30.520Z,196.4
2022-12-14T00:51:37.635Z,188.8
2022-12-14T00:52:44.630Z,156.3
2022-12-14T00:53:51.858Z,173.6
2022-12-14T00:54:58.977Z,166
2022-12-14T00:56:06.094Z,169.3
2022-12-14T00:57:14.195Z,164
2022-12-14T00:58:21.398Z,167.5
2022-12-14T00:59:28.509Z,166.5
2022-12-14T01:00:35.742Z,172.1
2022-12-14T01:01:42.844Z,182
2022-12-14T01:02:50.061Z,193.8
2022-12-14T01:03:57.105Z,197.1
2022-12-14T01:05:09.266Z,203.7
2022-12-14T01:06:16.402Z,205.9
2022-12-14T01:07:23.512Z,203.9
2022-12-14T01:08:30.593Z,206.4
2022-12-14T01:09:40.754Z,205
2022-12-14T01:10:48.082Z,204.1
2022-12-14T01:11:54.998Z,194.9
2022-12-14T01:13:02.285Z,195.1
2022-12-14T01:14:09.414Z,199
2022-12-14T01:15:16.431Z,193.7
2022-12-14T01:16:23.663Z,192.3
2022-12-14T01:17:30.690Z,182.1
2022-12-14T01:18:37.803Z,185.8
2022-12-14T01:19:44.956Z,178.8
2022-12-14T01:20:52.027Z,179.3
2022-12-14T01:21:59.138Z,175.9
2022-12-14T01:23:06.350Z,181.7
2022-12-14T01:24:13.416Z,180.3
2022-12-14T01:25:20.582Z,181.4
2022-12-14T01:26:27.898Z,180.5
2022-12-14T01:27:34.870Z,181.1
2022-12-14T01:28:41.910Z,182.5
2022-12-14T01:29:48.967Z,178.1
2022-12-14T01:30:56.158Z,175.6
2022-12-14T01:32:03.426Z,185.6
2022-12-14T01:33:10.535Z,177
2022-12-14T01:34:17.571Z,180.7
2022-12-14T01:35:24.759Z,180.3
2022-12-14T01:36:31.919Z,181.4
2022-12-14T01:37:38.898Z,187.3
2022-12-14T01:38:46.084Z,189.8
2022-12-14T01:39:58.245Z,190.9
2022-12-14T01:41:05.737Z,197.6
2022-12-14T01:42:13.179Z,199.3
2022-12-14T01:43:20.194Z,203.4
2022-12-14T01:44:27.316Z,219.9
2022-12-14T01:45:34.414Z,223.1
2022-12-14T01:46:41.642Z,226.4
2022-12-14T01:47:48.690Z,229.6
2022-12-14T01:49:01.379Z,226
2022-12-14T01:50:16.239Z,233.5
2022-12-14T01:51:29.488Z,236.6
2022-12-14T01:52:36.823Z,231.5
2022-12-14T01:53:49.266Z,238.3
2022-12-14T01:54:56.567Z,236.9
2022-12-14T01:56:11.673Z,236.6
2022-12-14T01:57:18.862Z,239
2022-12-14T01:58:26.097Z,237.8
2022-12-14T01:59:33.157Z,250.2
2022-12-14T02:00:40.133Z,259.3
2022-12-14T02:01:48.277Z,252.5
2022-12-14T02:02:54.558Z,242.6
2022-12-14T02:04:07.186Z,253.2
2022-12-14T02:05:14.294Z,247.3
2022-12-14T02:06:21.442Z,233.4
2022-12-14T02:07:33.689Z,235.5
2022-12-14T02:08:40.734Z,232.4
2022-12-14T02:09:47.872Z,233
2022-12-14T02:10:55.026Z,229.3
2022-12-14T02:12:02.131Z,230.3
2022-12-14T02:13:09.173Z,221.8
2022-12-14T02:14:18.998Z,223.3
2022-12-14T02:15:26.055Z,218.6
2022-12-14T02:16:33.194Z,219.5
2022-12-14T02:17:40.343Z,216.5
2022-12-14T02:18:47.614Z,223.6
2022-12-14T02:19:54.598Z,214
2022-12-14T02:21:01.734Z,211
2022-12-14T02:22:16.514Z,202.1
2022-12-14T02:23:29.215Z,205.4
2022-12-14T02:24:40.905Z,205.7
2022-12-14T02:25:58.302Z,208.8
2022-12-14T02:27:10.518Z,213.2
2022-12-14T02:28:23.654Z,191.8
2022-12-14T02:29:39.065Z,201.1
2022-12-14T02:30:54.254Z,200.3
2022-12-14T02:32:06.524Z,195.8
2022-12-14T02:33:21.856Z,191.1
2022-12-14T02:34:34.157Z,197.6
2022-12-14T02:35:47.111Z,203.4
2022-12-14T02:36:56.924Z,197.4
2022-12-14T02:38:06.577Z,198.3
2022-12-14T02:39:22.219Z,192.2
2022-12-14T02:40:34.661Z,196.6
2022-12-14T02:41:49.849Z,199.4
2022-12-14T02:43:05.122Z,199.5
2022-12-14T02:44:15.470Z,192.3
2022-12-14T02:45:27.771Z,198.2
2022-12-14T02:46:40.244Z,198
2022-12-14T02:47:52.919Z,190
2022-12-14T02:49:05.106Z,193.3
2022-12-14T02:50:17.402Z,199.7
2022-12-14T02:51:33.647Z,190.3
2022-12-14T02:52:51.206Z,194.7
2022-12-14T02:54:06.206Z,190.5
2022-12-14T02:55:15.991Z,182.5
2022-12-14T02:56:29.194Z,178.1
2022-12-14T02:57:44.479Z,181.8
2022-12-14T02:58:56.633Z,175.5
2022-12-14T03:00:03.955Z,187.4
2022-12-14T03:01:11.537Z,183.3
2022-12-14T03:02:18.682Z,187.6
2022-12-14T03:03:26.058Z,187.9
2022-12-14T03:04:32.870Z,187.1
2022-12-14T03:05:42.922Z,183
2022-12-14T03:06:58.171Z,184.1
2022-12-14T03:08:05.334Z,189.4
2022-12-14T03:09:12.478Z,191.9
2022-12-14T03:10:19.672Z,188
2022-12-14T03:11:34.966Z,190
2022-12-14T03:12:50.077Z,186.1
2022-12-14T03:13:57.431Z,192.8
2022-12-14T03:15:04.491Z,190
2022-12-14T03:16:11.693Z,190.5
2022-12-14T03:17:19.743Z,192.1
2022-12-14T03:18:25.834Z,195.2
2022-12-14T03:19:33.027Z,194.9
2022-12-14T03:20:48.163Z,201.8
2022-12-14T03:21:55.344Z,197.9
2022-12-14T03:23:02.514Z,197.4
2022-12-14T03:24:12.706Z,197.8
2022-12-14T03:25:19.831Z,205.5
2022-12-14T03:26:29.592Z,197.4
2022-12-14T03:27:47.277Z,196
2022-12-14T03:28:56.949Z,199.7
2022-12-14T03:30:04.103Z,202.4
2022-12-14T03:31:14.405Z,206.3
2022-12-14T03:32:29.268Z,198.8
2022-12-14T03:33:36.266Z,200.8
2022-12-14T03:34:43.321Z,197.8
2022-12-14T03:35:55.586Z,199.8
2022-12-14T03:37:06.146Z,202.5
2022-12-14T03:38:16.151Z,200.2
2022-12-14T03:39:23.058Z,200.7
2022-12-14T03:40:30.214Z,198.4
2022-12-14T03:41:37.418Z,196.7
2022-12-14T03:42:52.630Z,198.1
2022-12-14T03:44:07.390Z,192.3
2022-12-14T03:45:24.717Z,197
2022-12-14T03:46:31.802Z,192.3
2022-12-14T03:47:49.046Z,195.3
2022-12-14T03:49:04.246Z,192.9
2022-12-14T03:50:17.516Z,198
2022-12-14T03:51:27.163Z,190.2
2022-12-14T03:52:34.317Z,194.2
2022-12-14T03:53:46.538Z,191.9
2022-12-14T03:55:03.823Z,187.6
2022-12-14T03:56:16.073Z,191.6
2022-12-14T03:57:23.292Z,186.8
2022-12-14T03:58:41.002Z,193.4
2022-12-14T03:59:58.755Z,196.7
2022-12-14T04:01:05.887Z,188.9
2022-12-14T04:02:13.082Z,194.2
2022-12-14T04:03:25.812Z,194.8
2022-12-14T04:04:38.555Z,181.8
2022-12-14T04:05:51.210Z,195.6
2022-12-14T04:07:05.905Z,193.5
2022-12-14T04:08:15.613Z,184.6
2022-12-14T04:09:30.574Z,197.6
2022-12-14T04:10:37.582Z,202.3
2022-12-14T04:11:49.840Z,197.4
2022-12-14T04:13:10.117Z,200.2
2022-12-14T04:14:22.336Z,193.6
2022-12-14T04:15:34.662Z,199.7
2022-12-14T04:16:47.154Z,202.3
2022-12-14T04:17:59.374Z,201.5
2022-12-14T04:19:11.497Z,208.1
2022-12-14T04:20:21.745Z,204
2022-12-14T04:21:31.454Z,209
2022-12-14T04:22:46.602Z,203.6
2022-12-14T04:23:58.798Z,203.6
2022-12-14T04:25:16.176Z,212.7
2022-12-14T04:26:28.418Z,206.5
2022-12-14T04:27:35.649Z,208.6
2022-12-14T04:28:42.597Z,206.5
2022-12-14T04:29:57.369Z,206.6
2022-12-14T04:31:04.657Z,208.4
2022-12-14T04:32:11.809Z,203.1
2022-12-14T04:33:29.401Z,196.8
2022-12-14T04:34:41.194Z,194.3
2022-12-14T04:35:48.264Z,192
2022-12-14T04:36:55.494Z,180.2
2022-12-14T04:38:02.762Z,176.3
2022-12-14T04:39:14.733Z,184
2022-12-14T04:40:21.965Z,189.4
2022-12-14T04:41:34.190Z,178
2022-12-14T04:42:41.262Z,183.6
2022-12-14T04:43:56.043Z,177.5
2022-12-14T04:45:03.178Z,176.6
2022-12-14T04:46:10.420Z,167.6
2022-12-14T04:47:18.361Z,169.3
2022-12-14T04:48:25.709Z,175.8
2022-12-14T04:49:37.893Z,174.4
2022-12-14T04:50:53.439Z,168.5
2022-12-14T04:52:08.945Z,168.4
2022-12-14T04:53:18.673Z,163.6
2022-12-14T04:54:25.985Z,159.5
2022-12-14T04:55:38.562Z,168.1
2022-12-14T04:56:45.442Z,158
2022-12-14T04:57:57.729Z,150.1
2022-12-14T04:59:04.938Z,147.2
2022-12-14T05:00:12.004Z,144.6
2022-12-14T05:01:19.289Z,140.2
2022-12-14T05:02:34.625Z,146.9
2022-12-14T05:03:51.610Z,149.2
2022-12-14T05:05:07.173Z,144.8
2022-12-14T05:06:22.271Z,146.7
2022-12-14T05:07:34.421Z,141.9
2022-12-14T05:08:49.704Z,144.1
2022-12-14T05:10:04.913Z,143.2
2022-12-14T05:11:39.890Z,152.6
2022-12-14T05:12:27.342Z,153.9
2022-12-14T05:13:39.681Z,153.5
2022-12-14T05:14:46.581Z,154.8
2022-12-14T05:16:01.485Z,148.5
2022-12-14T05:17:09.517Z,148.5
2022-12-14T05:18:15.605Z,147.2
2022-12-14T05:19:22.729Z,153.1
2022-12-14T05:20:29.942Z,149
2022-12-14T05:21:37.418Z,149
2022-12-14T05:22:49.609Z,152.6
2022-12-14T05:23:56.843Z,152
2022-12-14T05:25:03.957Z,151.3
2022-12-14T05:26:11.050Z,158
2022-12-14T05:27:18.269Z,163.1
2022-12-14T05:28:25.346Z,158.5
2022-12-14T05:29:32.442Z,156.1
2022-12-14T05:30:39.707Z,162.9
2022-12-14T05:31:47.207Z,157.3
2022-12-14T05:32:53.777Z,158.2
2022-12-14T05:34:00.917Z,157.9
2022-12-14T05:35:08.177Z,158.8
2022-12-14T05:36:15.161Z,163.4
2022-12-14T05:37:22.285Z,153.5
2022-12-14T05:38:29.481Z,158.2
2022-12-14T05:39:36.539Z,159.8
2022-12-14T05:40:43.612Z,156.6
2022-12-14T05:41:50.713Z,155.7
2022-12-14T05:42:57.909Z,156.8
2022-12-14T05:44:08.108Z,151.2
2022-12-14T05:45:15.261Z,152.9
2022-12-14T05:46:22.389Z,148.2
2022-12-14T05:47:29.521Z,144.9
2022-12-14T05:48:36.670Z,141.6
2022-12-14T05:49:43.641Z,141
2022-12-14T05:50:50.893Z,140.3
2022-12-14T05:51:57.969Z,143.9
2022-12-14T05:53:05.241Z,140.4
2022-12-14T05:54:12.313Z,145
2022-12-14T05:55:19.341Z,139.6
2022-12-14T05:56:26.552Z,138.9
2022-12-14T05:57:34.237Z,143.1
2022-12-14T05:58:41.314Z,130.3
2022-12-14T05:59:48.386Z,134.6
2022-12-14T06:00:55.653Z,132.4
2022-12-14T06:02:05.904Z,132.2
2022-12-14T06:03:12.913Z,127.1
2022-12-14T06:04:20.227Z,129.1
2022-12-14T06:05:27.229Z,127
2022-12-14T06:06:34.349Z,126.7
2022-12-14T06:07:41.518Z,126.6
2022-12-14T06:08:48.579Z,124.5
2022-12-14T06:09:55.661Z,127.3
2022-12-14T06:11:02.833Z,128.2
2022-12-14T06:12:12.509Z,127.1
2022-12-14T06:13:19.628Z,119.9
2022-12-14T06:14:26.802Z,119.1
2022-12-14T06:15:34.319Z,125.4
2022-12-14T06:16:41.088Z,119.8
2022-12-14T06:17:48.158Z,119.8
2022-12-14T06:18:55.240Z,124.7
2022-12-14T06:20:03.193Z,116
2022-12-14T06:21:10.593Z,119.4
2022-12-14T06:22:17.780Z,116.9
2022-12-14T06:23:25.389Z,123.6
2022-12-14T06:24:32.048Z,117.1
2022-12-14T06:25:39.129Z,115.1
2022-12-14T06:26:46.198Z,119.8
2022-12-14T06:27:53.313Z,116.8
2022-12-14T06:29:00.496Z,121.6
2022-12-14T06:30:07.624Z,116.2
2022-12-14T06:31:15.273Z,120
2022-12-14T06:32:24.932Z,115.9
2022-12-14T06:33:32.057Z,114.7
2022-12-14T06:34:41.618Z,117.6
2022-12-14T06:35:46.233Z,116.7
2022-12-14T06:36:53.349Z,115.2
2022-12-14T06:38:00.540Z,116.5
2022-12-14T06:39:07.678Z,112
2022-12-14T06:40:14.833Z,112.3
2022-12-14T06:41:22.002Z,114
2022-12-14T06:42:29.111Z,107.2
2022-12-14T06:43:36.345Z,105.3
2022-12-14T06:44:43.252Z,109.7
2022-12-14T06:45:50.466Z,108
2022-12-14T06:46:57.604Z,105.9
2022-12-14T06:48:04.706Z,109.6
2022-12-14T06:49:11.922Z,107.3
2022-12-14T06:50:19.221Z,107.5
2022-12-14T06:51:26.152Z,105.4
2022-12-14T06:52:33.256Z,106.3
2022-12-14T06:53:40.401Z,104.1
2022-12-14T06:54:47.428Z,104.2
2022-12-14T06:55:54.721Z,109.6
2022-12-14T06:57:12.397Z,101.1
2022-12-14T06:58:19.557Z,102.5
2022-12-14T06:59:26.724Z,99.4
2022-12-14T07:00:33.961Z,104.5
2022-12-14T07:01:41.253Z,104.4
2022-12-14T07:02:48.190Z,102.1
2022-12-14T07:03:55.203Z,109.1
2022-12-14T07:05:02.383Z,110.8
2022-12-14T07:06:09.491Z,104.6
2022-12-14T07:07:16.669Z,108.6
2022-12-14T07:08:23.765Z,106.1
2022-12-14T07:09:30.924Z,107.1
2022-12-14T07:10:38.102Z,102.6
2022-12-14T07:11:45.084Z,106.6
2022-12-14T07:12:54.826Z,108.7
2022-12-14T07:14:01.988Z,106.4
2022-12-14T07:15:09.121Z,107.9
2022-12-14T07:16:16.384Z,110
2022-12-14T07:17:24.357Z,107.6
2022-12-14T07:18:32.425Z,103.4
2022-12-14T07:19:39.760Z,107
2022-12-14T07:20:46.859Z,105.7
2022-12-14T07:22:04.301Z,108.5
2022-12-14T07:23:11.279Z,107.9
2022-12-14T07:24:18.512Z,109.7
2022-12-14T07:25:25.573Z,106.8
2022-12-14T07:26:32.802Z,106.2
2022-12-14T07:27:39.908Z,157.1
2022-12-14T07:28:46.996Z,123.3
2022-12-14T07:29:54.108Z,114.1
2022-12-14T07:31:01.285Z,104.1
2022-12-14T07:32:08.389Z,106.4
2022-12-14T07:33:15.549Z,107.1
2022-12-14T07:34:22.757Z,104
2022-12-14T07:35:29.844Z,103.6
2022-12-14T07:36:37.236Z,107.1
2022-12-14T07:37:45.562Z,103.1
2022-12-14T07:38:51.642Z,102.1
2022-12-14T07:40:02.036Z,103.4
2022-12-14T07:41:09.504Z,99.6
2022-12-14T07:42:16.577Z,100.5
2022-12-14T07:43:24.010Z,104.9
2022-12-14T07:44:32.017Z,105.4
2022-12-14T07:45:39.008Z,105.6
2022-12-14T07:46:46.195Z,106.1
2022-12-14T07:47:53.217Z,103.7
2022-12-14T07:49:00.400Z,110.7
2022-12-14T07:50:07.488Z,105.4
2022-12-14T07:51:14.664Z,105.8
2022-12-14T07:52:21.788Z,100.6
2022-12-14T07:53:29.416Z,103.8
2022-12-14T07:54:36.082Z,107.8
2022-12-14T07:55:43.173Z,97.4
2022-12-14T07:56:50.316Z,106.8
2022-12-14T07:57:57.565Z,97
2022-12-14T07:59:04.921Z,98.7
2022-12-14T08:00:12.141Z,102.5
2022-12-14T08:01:19.341Z,91.8
2022-12-14T08:02:26.534Z,97.8
2022-12-14T08:03:33.661Z,94.6
2022-12-14T08:04:40.650Z,87.5
2022-12-14T08:05:47.711Z,93.4
2022-12-14T08:06:55.047Z,92.8
2022-12-14T08:08:02.363Z,91.2
2022-12-14T08:09:10.608Z,92.7
2022-12-14T08:10:18.155Z,90.1
2022-12-14T08:11:25.515Z,88.4
2022-12-14T08:12:32.715Z,91.7
2022-12-14T08:13:39.783Z,89.8
2022-12-14T08:14:51.954Z,92.4
2022-12-14T08:16:04.718Z,81.6
2022-12-14T08:17:24.855Z,88.5
2022-12-14T08:18:31.969Z,88.4
2022-12-14T08:19:38.779Z,87.3
2022-12-14T08:20:50.018Z,85
2022-12-14T08:21:53.083Z,90.4
2022-12-14T08:23:00.097Z,88.4
2022-12-14T08:24:07.390Z,90.7
2022-12-14T08:25:14.485Z,91.6
2022-12-14T08:26:22.503Z,91.1
2022-12-14T08:27:29.869Z,92
2022-12-14T08:28:37.064Z,89.4
2022-12-14T08:29:47.032Z,91.6
2022-12-14T08:30:54.269Z,94.6
2022-12-14T08:32:01.806Z,94.1
2022-12-14T08:33:09.005Z,91.8
2022-12-14T08:34:16.922Z,85.7
2022-12-14T08:35:24.202Z,85.6
2022-12-14T08:36:31.503Z,92.6
2022-12-14T08:37:41.694Z,85.8
2022-12-14T08:38:45.628Z,88.7
2022-12-14T08:40:03.279Z,85.2
2022-12-14T08:41:10.786Z,87.6
2022-12-14T08:42:17.771Z,85.8
2022-12-14T08:43:25.212Z,89.5
2022-12-14T08:44:32.020Z,92.9
2022-12-14T08:45:40.557Z,86.7
2022-12-14T08:46:48.473Z,93.3
2022-12-14T08:47:55.695Z,90.9
2022-12-14T08:49:03.113Z,88.1
2022-12-14T08:50:10.124Z,90.6
2022-12-14T08:51:17.311Z,93.5
2022-12-14T08:52:24.467Z,88.3
2022-12-14T08:53:32.600Z,87.8
2022-12-14T08:54:39.388Z,90
2022-12-14T08:55:46.265Z,87.1
2022-12-14T08:56:53.752Z,89.6
2022-12-14T08:58:01.071Z,87.9
2022-12-14T08:59:08.517Z,83.4
2022-12-14T09:00:15.857Z,88.1
2022-12-14T09:01:28.300Z,83.3
2022-12-14T09:02:31.500Z,82.8
2022-12-14T09:03:38.351Z,82.6
2022-12-14T09:04:45.401Z,78.9
2022-12-14T09:05:52.548Z,81.6
2022-12-14T09:06:59.773Z,79.2
2022-12-14T09:08:06.942Z,80
2022-12-14T09:09:16.604Z,83.3
2022-12-14T09:10:21.087Z,76.4
2022-12-14T09:11:29.731Z,82.2
2022-12-14T09:12:36.853Z,81.9
2022-12-14T09:13:44.235Z,79
2022-12-14T09:14:52.509Z,82.2
2022-12-14T09:16:00.004Z,78.2
2022-12-14T09:17:10.133Z,79.4
2022-12-14T09:18:17.116Z,77
2022-12-14T09:19:24.188Z,80.7
2022-12-14T09:20:31.304Z,75.9
2022-12-14T09:21:38.553Z,73.9
2022-12-14T09:22:45.524Z,76.5
2022-12-14T09:23:57.480Z,81.2
2022-12-14T09:24:59.722Z,74.2
2022-12-14T09:26:06.900Z,78.9
2022-12-14T09:27:19.095Z,78.3
2022-12-14T09:28:26.843Z,75
2022-12-14T09:29:33.923Z,80
2022-12-14T09:30:40.971Z,76.7
2022-12-14T09:31:48.200Z,78.8
2022-12-14T09:32:55.337Z,76.6
2022-12-14T09:34:02.307Z,79.1
2022-12-14T09:35:09.535Z,77.6
2022-12-14T09:36:17.756Z,74.4
2022-12-14T09:37:24.782Z,78.1
2022-12-14T09:38:31.960Z,78
2022-12-14T09:39:39.045Z,79.1
2022-12-14T09:40:46.122Z,74.5
2022-12-14T09:41:57.826Z,74.8
2022-12-14T09:43:08.809Z,74.6
2022-12-14T09:44:18.404Z,77.4
2022-12-14T09:45:28.653Z,71.4
2022-12-14T09:46:35.621Z,73.2
2022-12-14T09:47:52.841Z,71.2
2022-12-14T09:49:05.041Z,70.7
2022-12-14T09:50:22.345Z,73.2
2022-12-14T09:51:29.515Z,77.7
2022-12-14T09:52:36.678Z,78.8
2022-12-14T09:53:43.798Z,73.4
2022-12-14T09:54:50.910Z,75.6
2022-12-14T09:55:57.977Z,74.3
2022-12-14T09:57:05.162Z,77
2022-12-14T09:58:12.319Z,81.9
2022-12-14T09:59:24.462Z,83.9
2022-12-14T10:00:31.858Z,82.9
2022-12-14T10:01:38.970Z,80.3
2022-12-14T10:02:49.131Z,79.2
2022-12-14T10:04:06.303Z,80.4
2022-12-14T10:05:21.745Z,84.3
2022-12-14T10:06:36.810Z,79.2
2022-12-14T10:07:48.978Z,79.9
2022-12-14T10:09:01.719Z,81.8
2022-12-14T10:10:18.993Z,79.2
2022-12-14T10:11:26.380Z,79.4
2022-12-14T10:12:39.060Z,82.4
2022-12-14T10:13:51.672Z,84.1
2022-12-14T10:15:04.762Z,83.8
2022-12-14T10:16:22.274Z,91
2022-12-14T10:17:37.886Z,80.8
2022-12-14T10:19:00.434Z,77.1
2022-12-14T10:20:12.814Z,82.3
2022-12-14T10:21:22.603Z,79.3
2022-12-14T10:22:29.891Z,77.1
2022-12-14T10:23:42.260Z,76
2022-12-14T10:24:57.384Z,76.8
2022-12-14T10:26:07.118Z,77
2022-12-14T10:27:14.298Z,74
2022-12-14T10:28:24.179Z,74.1
2022-12-14T10:29:40.177Z,67.7
2022-12-14T10:30:47.287Z,72.6
2022-12-14T10:31:55.185Z,69.4
2022-12-14T10:33:11.234Z,67.9
2022-12-14T10:34:26.519Z,65.8
2022-12-14T10:35:34.684Z,67.1
2022-12-14T10:36:41.808Z,66.4
2022-12-14T10:37:56.828Z,65.2
2022-12-14T10:39:03.707Z,60.6
2022-12-14T10:40:17.704Z,63.5
2022-12-14T10:41:19.823Z,60.6
2022-12-14T10:42:32.364Z,54
2022-12-14T10:43:44.426Z,53.9
2022-12-14T10:45:16.574Z,54.2
2022-12-14T10:46:14.344Z,54.2
2022-12-14T10:47:23.301Z,53.2
2022-12-14T10:48:33.794Z,55.7
2022-12-14T10:49:45.731Z,54.7
2022-12-14T10:51:01.076Z,54.9
2022-12-14T10:52:08.052Z,53.1
2022-12-14T10:53:17.766Z,54.8
2022-12-14T10:54:24.910Z,58.8
2022-12-14T10:55:34.957Z,58
2022-12-14T10:56:42.285Z,59.5
2022-12-14T10:57:49.202Z,65.8
2022-12-14T10:58:56.341Z,65.8
2022-12-14T11:00:11.194Z,64.6
2022-12-14T11:01:18.583Z,62
2022-12-14T11:02:25.686Z,65.9
2022-12-14T11:03:32.682Z,66.9
2022-12-14T11:04:39.817Z,65.7
2022-12-14T11:05:51.906Z,65.2
2022-12-14T11:07:04.180Z,66.3
2022-12-14T11:08:11.413Z,70.1
2022-12-14T11:09:29.154Z,70.1
2022-12-14T11:10:36.347Z,62.7
2022-12-14T11:11:43.524Z,63.3
2022-12-14T11:12:50.525Z,69.4
2022-12-14T11:13:57.642Z,57.7
2022-12-14T11:15:09.867Z,62
2022-12-14T11:16:17.045Z,57.5
2022-12-14T11:17:27.290Z,60.5
2022-12-14T11:18:34.594Z,60.5
2022-12-14T11:19:41.661Z,62.9
2022-12-14T11:20:48.572Z,60.6
2022-12-14T11:22:01.356Z,63.3
2022-12-14T11:23:13.504Z,60.6
2022-12-14T11:24:20.831Z,60
2022-12-14T11:25:27.816Z,61.9
2022-12-14T11:26:45.560Z,60.1
2022-12-14T11:27:52.764Z,61.3
2022-12-14T11:29:00.078Z,58.7
2022-12-14T11:30:06.968Z,64.2
2022-12-14T11:31:14.298Z,59.5
2022-12-14T11:32:23.788Z,62.2
2022-12-14T11:33:30.929Z,61.9
2022-12-14T11:34:38.099Z,60.9
2022-12-14T11:35:45.242Z,65.5
2022-12-14T11:36:55.368Z,60.4
2022-12-14T11:38:12.661Z,61.2
2022-12-14T11:39:19.804Z,63.5
2022-12-14T11:40:26.893Z,59.8
2022-12-14T11:41:34.024Z,64.5
2022-12-14T11:42:41.276Z,58.9
2022-12-14T11:43:54.352Z,61.8
2022-12-14T11:45:04.097Z,63.1
2022-12-14T11:46:22.445Z,59.3
2022-12-14T11:47:39.705Z,62.9
2022-12-14T11:48:46.822Z,62.3
2022-12-14T11:49:54.083Z,61.8
2022-12-14T11:51:01.129Z,60.9
2022-12-14T11:52:11.347Z,64.7
2022-12-14T11:53:26.100Z,60.7
2022-12-14T11:54:34.067Z,60
2022-12-14T11:55:41.377Z,61.8
2022-12-14T11:56:51.588Z,60.2
2022-12-14T11:58:04.724Z,63.6
2022-12-14T11:59:14.906Z,63.4
2022-12-14T12:00:22.140Z,59.6
2022-12-14T12:01:32.294Z,64.9
2022-12-14T12:02:39.531Z,64.3
2022-12-14T12:03:49.750Z,67.7
2022-12-14T12:04:59.986Z,68.7
2022-12-14T12:06:15.055Z,66.5
2022-12-14T12:07:22.210Z,59.6
2022-12-14T12:08:29.740Z,64.5
2022-12-14T12:09:36.433Z,64.4
2022-12-14T12:10:43.618Z,61.2
2022-12-14T12:11:50.608Z,58.8
2022-12-14T12:12:57.849Z,62.3
2022-12-14T12:14:04.917Z,56.5
2022-12-14T12:15:22.284Z,58.5
2022-12-14T12:16:37.853Z,57.6
2022-12-14T12:17:44.721Z,58.3
2022-12-14T12:18:51.968Z,58.2
2022-12-14T12:19:58.784Z,57.1
2022-12-14T12:21:05.986Z,57.2
2022-12-14T12:22:15.693Z,59.6
2022-12-14T12:23:22.872Z,55.8
2022-12-14T12:24:33.073Z,56.4
2022-12-14T12:25:46.169Z,53.5
2022-12-14T12:26:54.172Z,55.7
2022-12-14T12:28:00.989Z,51.4
2022-12-14T12:29:08.116Z,56.8
2022-12-14T12:30:25.617Z,56.6
2022-12-14T12:31:32.713Z,52.3
2022-12-14T12:32:39.648Z,46.4
2022-12-14T12:33:46.871Z,49.3
2022-12-14T12:35:11.248Z,51.8
2022-12-14T12:36:20.441Z,49.3
2022-12-14T12:37:26.584Z,50.1
2022-12-14T12:38:35.129Z,51.1
2022-12-14T12:39:52.515Z,49.1
2022-12-14T12:41:06.102Z,50.9
2022-12-14T12:42:16.169Z,50.7
2022-12-14T12:43:26.289Z,48.1
2022-12-14T12:44:33.380Z,52.9
2022-12-14T12:45:48.649Z,51.4
2022-12-14T12:47:22.636Z,49.8
2022-12-14T12:48:07.984Z,51.1
2022-12-14T12:49:20.179Z,52.2
2022-12-14T12:50:27.313Z,52.5
2022-12-14T12:51:36.988Z,54.2
2022-12-14T12:52:54.486Z,51.5
2022-12-14T12:54:10.060Z,56.4
2022-12-14T12:55:22.286Z,53.6
2022-12-14T12:56:29.388Z,55.3
2022-12-14T12:57:36.620Z,55.7
2022-12-14T12:58:47.719Z,55.7
2022-12-14T12:59:51.284Z,53.7
2022-12-14T13:00:58.392Z,55.4
2022-12-14T13:02:05.644Z,58
2022-12-14T13:03:23.071Z,56.1
2022-12-14T13:04:33.073Z,61.5
2022-12-14T13:05:48.591Z,62.7
2022-12-14T13:06:47.242Z,65.4
2022-12-14T13:08:00.476Z,64
2022-12-14T13:09:10.746Z,61.6
2022-12-14T13:10:17.892Z,63.3
2022-12-14T13:11:26.957Z,68.9
2022-12-14T13:12:33.056Z,64.3
2022-12-14T13:13:40.246Z,60.3
2022-12-14T13:14:49.774Z,59.7
2022-12-14T13:15:55.015Z,61.1
2022-12-14T13:17:12.270Z,60
2022-12-14T13:18:49.100Z,60
2022-12-14T13:19:50.108Z,61.7
2022-12-14T13:20:41.342Z,60.4
2022-12-14T13:21:49.738Z,61.3
2022-12-14T13:22:57.314Z,60.2
2022-12-14T13:24:02.806Z,65.1
2022-12-14T13:25:10.565Z,61.8
2022-12-14T13:26:34.460Z,66.4
2022-12-14T13:27:30.344Z,61.7
2022-12-14T13:28:43.675Z,70.2
2022-12-14T13:29:55.927Z,67.9
2022-12-14T13:31:08.293Z,67
2022-12-14T13:32:20.440Z,71.1
2022-12-14T13:33:37.783Z,64.7
2022-12-14T13:34:49.914Z,71.8
2022-12-14T13:36:02.215Z,70
2022-12-14T13:37:19.780Z,71.9
2022-12-14T13:38:37.891Z,70.5
2022-12-14T13:39:50.880Z,68.8
2022-12-14T13:41:06.818Z,67.6
2022-12-14T13:42:24.219Z,69.1
2022-12-14T13:43:36.446Z,67.1
2022-12-14T13:44:51.598Z,68.7
2022-12-14T13:45:58.791Z,69.7
2022-12-14T13:47:08.434Z,69.9
2022-12-14T13:48:18.200Z,68.9
2022-12-14T13:49:27.878Z,73.2
2022-12-14T13:50:36.496Z,71.3
2022-12-14T13:51:42.219Z,69.7
2022-12-14T13:52:50.090Z,70.6
2022-12-14T13:54:02.512Z,72.5
2022-12-14T13:55:09.619Z,68.8
2022-12-14T13:56:32.860Z,71.2
2022-12-14T13:57:34.114Z,66.1
2022-12-14T13:58:41.308Z,67.6
2022-12-14T13:59:48.294Z,64.1
2022-12-14T14:00:55.494Z,63.3
2022-12-14T14:02:07.704Z,67.9
2022-12-14T14:03:25.262Z,60.7
2022-12-14T14:04:37.463Z,56.4
2022-12-14T14:05:44.479Z,58.3
2022-12-14T14:06:51.490Z,57.3
2022-12-14T14:07:58.702Z,58
2022-12-14T14:09:05.944Z,57.8
2022-12-14T14:10:23.143Z,62.2
2022-12-14T14:11:37.237Z,63
2022-12-14T14:12:42.514Z,61.8
2022-12-14T14:13:49.759Z,64.7
2022-12-14T14:15:02.867Z,66.8
2022-12-14T14:16:30.816Z,71.1
2022-12-14T14:17:22.521Z,67.8
2022-12-14T14:18:40.011Z,73.5
2022-12-14T14:19:55.627Z,69.7
2022-12-14T14:21:02.935Z,69.2
2022-12-14T14:22:24.067Z,67.1
2022-12-14T14:23:22.311Z,72.7
2022-12-14T14:24:29.551Z,64.8
2022-12-14T14:25:36.640Z,68.6
2022-12-14T14:26:48.762Z,67
2022-12-14T14:28:01.026Z,62.8
2022-12-14T14:29:08.095Z,65.4
2022-12-14T14:30:20.350Z,67.9
2022-12-14T14:31:35.781Z,63.6
2022-12-14T14:32:48.815Z,64
2022-12-14T14:33:56.979Z,64.4
2022-12-14T14:35:04.257Z,64.6
2022-12-14T14:36:21.525Z,70.6
2022-12-14T14:37:31.265Z,65.8
2022-12-14T14:38:38.642Z,65.9
2022-12-14T14:39:56.813Z,70.3
2022-12-14T14:41:17.915Z,64.5
2022-12-14T14:42:13.665Z,66.4
2022-12-14T14:43:23.846Z,72.7
2022-12-14T14:44:33.486Z,67.8
2022-12-14T14:45:43.749Z,69.5
2022-12-14T14:46:50.804Z,67.9
2022-12-14T14:47:57.774Z,73.5
2022-12-14T14:49:04.977Z,67.7
2022-12-14T14:50:17.292Z,66.8
2022-12-14T14:51:24.430Z,69.5
2022-12-14T14:52:34.576Z,73.6
2022-12-14T14:53:41.779Z,71.7
2022-12-14T14:55:56.051Z,73.7
2022-12-14T14:57:08.139Z,73.7
2022-12-14T14:58:25.423Z,67.7
2022-12-14T14:59:35.683Z,70.7
2022-12-14T15:00:42.908Z,65.7
2022-12-14T15:01:52.497Z,66.3
2022-12-14T15:03:00.666Z,63
2022-12-14T15:04:07.795Z,61.6
2022-12-14T15:06:30.161Z,58.1
2022-12-14T15:07:43.453Z,59
2022-12-14T15:08:50.480Z,60.4
2022-12-14T15:10:00.709Z,59.3
2022-12-14T15:11:11.316Z,62.8
2022-12-14T15:12:21.616Z,56.4
2022-12-14T15:13:34.103Z,59
2022-12-14T15:14:48.736Z,62